Terminal Aerodrome Forecast
Issued by NWS North Platte, NE

Home | Current Version | Previous Version | Text Only | Print | Product List | Glossary On
Versions: 1 2 3 4 5 6 7 8 9 10 11 12 13 14 15 16 17 18 19 20 21 22 23 24
000
FTUS43 KLBF 271506 AAD
TAFLBF
TAF AMD
KLBF 271506Z 2715/2812 00000KT 1/4SM FG VV002
     FM271600 VRB03KT 1SM BR OVC005
     FM271700 16004KT P6SM SCT015 SCT040
     FM272000 15007KT P6SM SCT250
     FM280000 13008KT P6SM BKN250
     FM280900 12008KT P6SM VCSH SCT030 OVC100=

USA.gov is the U.S. government's official web portal to all federal, state and local government web resources and services.